createdAt,value
2023-01-13T00:00:38.536Z,6.13
2023-01-13T00:03:07.425Z,12.17
2023-01-13T00:05:36.519Z,6.73
2023-01-13T00:08:06.500Z,6.70
2023-01-13T00:10:35.461Z,4.57
2023-01-13T00:13:06.540Z,10.77
2023-01-13T00:15:35.495Z,4.27
2023-01-13T00:18:04.019Z,5.47
2023-01-13T00:20:32.587Z,3.93
2023-01-13T00:23:01.587Z,6.07
2023-01-13T00:25:30.109Z,11.03
2023-01-13T00:27:58.615Z,5.37
2023-01-13T00:30:28.560Z,6.20
2023-01-13T00:32:57.142Z,6.20
2023-01-13T00:35:25.719Z,5.53
2023-01-13T00:37:54.388Z,6.67
2023-01-13T00:40:22.875Z,7.37
2023-01-13T00:43:08.715Z,5.07
2023-01-13T00:45:39.788Z,4.13
2023-01-13T00:48:09.324Z,3.53
2023-01-13T00:50:38.229Z,13.67
2023-01-13T00:53:06.825Z,3.10
2023-01-13T00:55:35.312Z,3.73
2023-01-13T00:58:04.550Z,3.47
2023-01-13T01:00:33.617Z,3.43
2023-01-13T01:03:03.587Z,6.07
2023-01-13T01:05:34.684Z,3.57
2023-01-13T01:08:03.630Z,4.73
2023-01-13T01:10:32.131Z,3.30
2023-01-13T01:13:00.796Z,5.53
2023-01-13T01:15:29.439Z,7.23
2023-01-13T01:17:58.017Z,6.63
2023-01-13T01:20:27.964Z,5.33
2023-01-13T01:22:56.536Z,3.40
2023-01-13T01:25:25.091Z,3.43
2023-01-13T01:27:55.434Z,4.23
2023-01-13T01:30:23.949Z,5.03
2023-01-13T01:32:52.464Z,6.20
2023-01-13T01:35:21.027Z,4.33
2023-01-13T01:37:51.153Z,3.20
2023-01-13T01:40:19.923Z,2.80
2023-01-13T01:43:05.480Z,3.17
2023-01-13T01:45:34.198Z,3.20
2023-01-13T01:48:05.605Z,4.20
2023-01-13T01:50:34.848Z,3.27
2023-01-13T01:53:12.092Z,4.60
2023-01-13T01:55:41.286Z,3.50
2023-01-13T01:58:13.435Z,4.40
2023-01-13T02:00:42.314Z,5.67
2023-01-13T02:03:12.104Z,4.90
2023-01-13T02:05:41.377Z,3.57
2023-01-13T02:08:14.432Z,6.47
2023-01-13T02:10:47.033Z,5.77
2023-01-13T02:13:15.708Z,3.67
2023-01-13T02:15:51.878Z,3.30
2023-01-13T02:18:37.811Z,3.50
2023-01-13T02:21:33.900Z,2.80
2023-01-13T02:24:58.500Z,3.27
2023-01-13T02:27:53.301Z,5.00
2023-01-13T02:30:57.267Z,3.63
2023-01-13T02:33:58.141Z,3.90
2023-01-13T02:36:34.262Z,3.97
2023-01-13T02:39:06.849Z,5.20
2023-01-13T02:41:58.732Z,6.63
2023-01-13T02:44:30.018Z,3.47
2023-01-13T02:47:04.362Z,3.47
2023-01-13T02:49:38.815Z,5.07
2023-01-13T02:52:12.942Z,3.30
2023-01-13T02:54:45.495Z,4.23
2023-01-13T02:57:16.961Z,3.80
2023-01-13T02:59:45.757Z,4.37
2023-01-13T03:02:20.477Z,3.20
2023-01-13T03:04:52.259Z,4.17
2023-01-13T03:07:55.788Z,3.63
2023-01-13T03:10:35.622Z,3.40
2023-01-13T03:13:24.832Z,4.23
2023-01-13T03:16:01.429Z,3.57
2023-01-13T03:18:41.938Z,4.67
2023-01-13T03:21:20.090Z,4.27
2023-01-13T03:23:53.351Z,4.03
2023-01-13T03:26:31.729Z,4.53
2023-01-13T03:29:10.331Z,7.13
2023-01-13T03:31:44.100Z,3.77
2023-01-13T03:34:17.601Z,3.47
2023-01-13T03:36:50.593Z,4.50
2023-01-13T03:39:26.523Z,4.13
2023-01-13T03:42:00.112Z,3.20
2023-01-13T03:44:34.071Z,2.50
2023-01-13T03:47:10.822Z,3.00
2023-01-13T03:49:47.540Z,3.20
2023-01-13T03:52:20.786Z,2.97
2023-01-13T03:54:54.079Z,4.03
2023-01-13T03:57:28.930Z,3.57
2023-01-13T04:00:01.597Z,4.30
2023-01-13T04:02:49.307Z,6.50
2023-01-13T04:05:20.042Z,8.73
2023-01-13T04:07:54.163Z,4.17
2023-01-13T04:10:29.099Z,3.87
2023-01-13T04:13:02.491Z,3.97
2023-01-13T04:15:34.136Z,3.83
2023-01-13T04:18:15.250Z,3.27
2023-01-13T04:20:47.265Z,4.77
2023-01-13T04:23:17.140Z,3.20
2023-01-13T04:25:46.767Z,2.60
2023-01-13T04:28:15.814Z,2.87
2023-01-13T04:30:45.588Z,3.27
2023-01-13T04:33:15.282Z,3.00
2023-01-13T04:35:46.034Z,3.07
2023-01-13T04:38:16.545Z,3.10
2023-01-13T04:40:45.226Z,2.53
2023-01-13T04:43:15.969Z,2.87
2023-01-13T04:45:45.369Z,2.73
2023-01-13T04:48:14.290Z,4.10
2023-01-13T04:50:44.378Z,2.37
2023-01-13T04:53:12.886Z,2.30
2023-01-13T04:55:41.505Z,2.73
2023-01-13T04:58:12.239Z,2.80
2023-01-13T05:00:41.773Z,3.57
2023-01-13T05:03:10.635Z,2.93
2023-01-13T05:05:39.320Z,4.17
2023-01-13T05:08:09.616Z,2.80
2023-01-13T05:10:38.887Z,2.73
2023-01-13T05:13:24.535Z,3.03
2023-01-13T05:16:19.384Z,2.73
2023-01-13T05:18:48.039Z,2.83
2023-01-13T05:21:30.333Z,2.37
2023-01-13T05:24:17.398Z,3.10
2023-01-13T05:26:49.670Z,2.60
2023-01-13T05:29:18.265Z,2.20
2023-01-13T05:31:46.871Z,5.50
2023-01-13T05:34:15.522Z,7.87
2023-01-13T05:36:44.048Z,11.73
2023-01-13T05:39:14.126Z,3.37
2023-01-13T05:42:00.133Z,5.30
2023-01-13T05:44:28.821Z,4.03
2023-01-13T05:46:57.363Z,2.50
2023-01-13T05:49:26.327Z,4.30
2023-01-13T05:51:54.880Z,5.93
2023-01-13T05:54:24.857Z,4.20
2023-01-13T05:56:53.422Z,3.67
2023-01-13T05:59:21.976Z,3.00
2023-01-13T06:01:50.789Z,5.90
2023-01-13T06:04:19.470Z,15.63
2023-01-13T06:06:48.973Z,5.30
2023-01-13T06:09:18.454Z,6.10
2023-01-13T06:11:48.323Z,2.93
2023-01-13T06:14:17.703Z,6.03
2023-01-13T06:16:46.723Z,6.33
2023-01-13T06:19:15.347Z,9.97
2023-01-13T06:21:45.081Z,9.57
2023-01-13T06:24:13.601Z,9.57
2023-01-13T06:26:42.727Z,6.33
2023-01-13T06:29:15.120Z,9.30
2023-01-13T06:31:44.051Z,7.63
2023-01-13T06:34:15.387Z,13.77
2023-01-13T06:36:49.316Z,12.57
2023-01-13T06:39:21.539Z,11.93
2023-01-13T06:42:10.738Z,7.60
2023-01-13T06:44:41.066Z,8.47
2023-01-13T06:47:09.975Z,6.07
2023-01-13T06:49:38.525Z,6.90
2023-01-13T06:52:07.393Z,18.80
2023-01-13T06:54:36.043Z,9.17
2023-01-13T06:57:05.460Z,7.07
2023-01-13T06:59:35.461Z,7.97
2023-01-13T07:02:05.679Z,8.77
2023-01-13T07:04:34.174Z,10.47
2023-01-13T07:07:02.679Z,7.47
2023-01-13T07:09:31.161Z,10.63
2023-01-13T07:11:59.701Z,11.60
2023-01-13T07:14:45.991Z,9.97
2023-01-13T07:17:16.081Z,11.13
2023-01-13T07:19:44.590Z,10.83
2023-01-13T07:22:15.349Z,6.57
2023-01-13T07:24:43.883Z,8.47
2023-01-13T07:27:12.405Z,6.77
2023-01-13T07:29:40.907Z,7.53
2023-01-13T07:32:09.536Z,8.87
2023-01-13T07:34:39.491Z,8.63
2023-01-13T07:37:08.360Z,10.70
2023-01-13T07:39:36.837Z,6.90
2023-01-13T07:42:23.668Z,9.00
2023-01-13T07:44:52.234Z,10.73
2023-01-13T07:47:23.427Z,11.73
2023-01-13T07:49:53.480Z,7.43
2023-01-13T07:52:21.990Z,8.60
2023-01-13T07:54:50.875Z,6.30
2023-01-13T07:57:19.685Z,12.73
2023-01-13T07:59:48.148Z,10.27
2023-01-13T08:02:16.981Z,7.67
2023-01-13T08:04:45.635Z,8.43
2023-01-13T08:07:15.518Z,10.20
2023-01-13T08:09:44.078Z,8.13
2023-01-13T08:12:30.406Z,6.87
2023-01-13T08:14:59.870Z,8.20
2023-01-13T08:17:28.505Z,8.60
2023-01-13T08:19:57.086Z,6.53
2023-01-13T08:22:27.050Z,9.07
2023-01-13T08:24:55.672Z,9.57
2023-01-13T08:27:24.456Z,7.93
2023-01-13T08:29:53.063Z,8.93
2023-01-13T08:32:21.587Z,11.43
2023-01-13T08:34:50.211Z,15.37
2023-01-13T08:37:18.746Z,9.63
2023-01-13T08:39:48.823Z,7.87
2023-01-13T08:42:17.385Z,6.37
2023-01-13T08:44:45.920Z,6.53
2023-01-13T08:47:14.633Z,5.63
2023-01-13T08:49:43.200Z,8.07
2023-01-13T08:52:11.870Z,6.00
2023-01-13T08:54:41.370Z,6.63
2023-01-13T08:57:11.378Z,15.13
2023-01-13T08:59:40.049Z,10.80
2023-01-13T09:02:15.105Z,11.73
2023-01-13T09:04:44.071Z,8.67
2023-01-13T09:07:12.732Z,6.17
2023-01-13T09:09:41.899Z,5.47
2023-01-13T09:12:31.539Z,10.33
2023-01-13T09:15:00.190Z,10.57
2023-01-13T09:17:29.020Z,7.00
2023-01-13T09:19:57.623Z,13.13
2023-01-13T09:22:27.181Z,8.67
2023-01-13T09:24:56.427Z,7.83
2023-01-13T09:27:26.350Z,7.17
2023-01-13T09:29:54.867Z,5.17
2023-01-13T09:32:23.450Z,9.97
2023-01-13T09:35:03.891Z,10.20
2023-01-13T09:37:34.652Z,8.20
2023-01-13T09:40:03.594Z,9.90
2023-01-13T09:42:58.471Z,7.80
2023-01-13T09:45:30.711Z,12.03
2023-01-13T09:48:05.545Z,8.23
2023-01-13T09:50:52.708Z,9.63
2023-01-13T09:53:24.156Z,8.77
2023-01-13T09:55:53.101Z,6.00
2023-01-13T09:58:24.311Z,9.27
2023-01-13T10:01:06.135Z,14.50
2023-01-13T10:03:36.956Z,25.53
2023-01-13T10:06:14.904Z,29.60
2023-01-13T10:08:45.264Z,28.83
2023-01-13T10:11:34.713Z,20.83
2023-01-13T10:14:11.936Z,26.27
2023-01-13T10:16:46.061Z,22.50
2023-01-13T10:19:20.276Z,16.10
2023-01-13T10:22:23.609Z,25.77
2023-01-13T10:25:18.333Z,20.23
2023-01-13T10:27:50.182Z,16.83
2023-01-13T10:30:23.128Z,20.03
2023-01-13T10:32:56.152Z,22.77
2023-01-13T10:35:51.114Z,13.53
2023-01-13T10:38:23.689Z,8.47
2023-01-13T10:40:54.502Z,7.13
2023-01-13T10:43:24.082Z,20.30
2023-01-13T10:45:59.990Z,9.87
2023-01-13T10:48:43.464Z,14.03
2023-01-13T10:51:24.137Z,13.60
2023-01-13T10:53:56.307Z,11.50
2023-01-13T10:56:26.753Z,14.33
2023-01-13T10:59:14.377Z,21.53
2023-01-13T11:01:54.902Z,14.57
2023-01-13T11:04:30.615Z,14.37
2023-01-13T11:06:59.954Z,9.13
2023-01-13T11:09:31.164Z,10.33
2023-01-13T11:12:03.208Z,12.30
2023-01-13T11:14:39.869Z,15.43
2023-01-13T11:17:30.032Z,10.87
2023-01-13T11:20:05.964Z,10.80
2023-01-13T11:22:38.458Z,15.27
2023-01-13T11:25:12.531Z,10.50
2023-01-13T11:27:45.411Z,7.90
2023-01-13T11:30:31.309Z,9.87
2023-01-13T11:33:35.831Z,10.27
2023-01-13T11:36:12.307Z,14.30
2023-01-13T11:38:48.050Z,18.63
2023-01-13T11:41:26.315Z,12.80
2023-01-13T11:44:00.485Z,10.70
2023-01-13T11:46:29.987Z,15.83
2023-01-13T11:49:02.226Z,18.93
2023-01-13T11:51:37.703Z,12.30
2023-01-13T11:54:40.166Z,14.80
2023-01-13T11:57:45.016Z,10.77
2023-01-13T12:00:43.538Z,14.27
2023-01-13T12:03:24.586Z,11.30
2023-01-13T12:06:30.222Z,9.77
2023-01-13T12:09:29.373Z,13.83
2023-01-13T12:12:23.089Z,14.43
2023-01-13T12:15:09.178Z,22.73
2023-01-13T12:17:46.506Z,19.63
2023-01-13T12:20:25.690Z,22.63
2023-01-13T12:22:57.127Z,20.53
2023-01-13T12:25:33.646Z,15.10
2023-01-13T12:28:06.999Z,22.27
2023-01-13T12:30:41.886Z,15.73
2023-01-13T12:33:18.867Z,14.00
2023-01-13T12:35:56.047Z,12.43
2023-01-13T12:38:34.575Z,10.97
2023-01-13T12:41:16.485Z,9.47
2023-01-13T12:44:12.225Z,11.77
2023-01-13T12:46:53.504Z,12.23
2023-01-13T12:49:25.217Z,11.57
2023-01-13T12:52:15.493Z,10.50
2023-01-13T12:55:10.148Z,10.73
2023-01-13T12:57:41.359Z,14.70
2023-01-13T13:00:19.225Z,13.07
2023-01-13T13:03:21.178Z,11.37
2023-01-13T13:05:58.318Z,10.33
2023-01-13T13:08:45.920Z,15.13
2023-01-13T13:11:41.751Z,10.60
2023-01-13T13:14:15.159Z,12.17
2023-01-13T13:16:53.160Z,8.07
2023-01-13T13:19:47.721Z,8.67
2023-01-13T13:22:34.603Z,9.80
2023-01-13T13:25:23.987Z,10.13
2023-01-13T13:28:20.758Z,9.63
2023-01-13T13:31:17.907Z,10.17
2023-01-13T13:34:03.377Z,10.73
2023-01-13T13:36:55.289Z,10.03
2023-01-13T13:39:44.682Z,10.00
2023-01-13T13:42:41.546Z,11.03
2023-01-13T13:45:35.520Z,14.23
2023-01-13T13:48:24.763Z,17.03
2023-01-13T13:50:58.162Z,15.67
2023-01-13T13:53:31.650Z,17.60
2023-01-13T13:56:01.867Z,14.60
2023-01-13T13:58:37.253Z,11.80
2023-01-13T14:01:07.677Z,12.27
2023-01-13T14:03:40.249Z,10.70
2023-01-13T14:06:22.219Z,13.30
2023-01-13T14:08:51.950Z,10.80
2023-01-13T14:11:28.030Z,11.03
2023-01-13T14:14:04.387Z,22.10
2023-01-13T14:16:36.106Z,18.90
2023-01-13T14:19:06.431Z,12.13
2023-01-13T14:21:35.056Z,9.70
2023-01-13T14:24:10.865Z,7.60
2023-01-13T14:26:39.735Z,9.93
2023-01-13T14:29:08.972Z,9.30
2023-01-13T14:31:39.720Z,16.37
2023-01-13T14:34:31.735Z,11.57
2023-01-13T14:37:01.572Z,12.67
2023-01-13T14:39:38.871Z,12.87
2023-01-13T14:42:14.121Z,12.77
2023-01-13T14:44:47.171Z,14.93
2023-01-13T14:47:22.619Z,15.63
2023-01-13T14:50:07.130Z,14.93
2023-01-13T14:52:37.893Z,14.57
2023-01-13T14:55:31.330Z,14.83
2023-01-13T14:58:18.801Z,13.40
2023-01-13T15:00:47.672Z,18.20
2023-01-13T15:03:17.630Z,18.23
2023-01-13T15:05:50.483Z,20.67
2023-01-13T15:08:38.823Z,18.97
2023-01-13T15:11:15.929Z,15.70
2023-01-13T15:13:52.878Z,25.67
2023-01-13T15:16:25.114Z,18.23
2023-01-13T15:18:54.757Z,19.67
2023-01-13T15:21:25.248Z,21.73
2023-01-13T15:23:53.815Z,23.37
2023-01-13T15:26:25.114Z,20.30
2023-01-13T15:28:55.615Z,25.13
2023-01-13T15:31:25.184Z,16.57
2023-01-13T15:33:54.020Z,22.13
2023-01-13T15:36:27.696Z,24.33
2023-01-13T15:38:56.774Z,23.57
2023-01-13T15:41:43.076Z,19.40
2023-01-13T15:44:45.462Z,19.43
2023-01-13T15:47:14.817Z,26.30
2023-01-13T15:49:45.481Z,26.33
2023-01-13T15:52:21.648Z,21.50
2023-01-13T15:54:50.937Z,23.53
2023-01-13T15:57:24.402Z,29.23
2023-01-13T15:59:56.571Z,28.77
2023-01-13T16:02:25.556Z,22.17
2023-01-13T16:04:55.002Z,17.90
2023-01-13T16:07:26.580Z,22.77
2023-01-13T16:09:55.266Z,17.23
2023-01-13T16:12:23.783Z,20.87
2023-01-13T16:14:52.402Z,21.10
2023-01-13T16:17:23.962Z,31.17
2023-01-13T16:19:53.957Z,29.87
2023-01-13T16:22:24.475Z,33.07
2023-01-13T16:24:53.933Z,35.10
2023-01-13T16:27:24.017Z,38.03
2023-01-13T16:29:53.697Z,33.83
2023-01-13T16:32:22.199Z,31.73
2023-01-13T16:34:50.746Z,27.10
2023-01-13T16:37:26.301Z,33.50
2023-01-13T16:39:56.158Z,37.77
2023-01-13T16:42:24.857Z,38.70
2023-01-13T16:44:53.542Z,43.83
2023-01-13T16:47:24.126Z,47.90
2023-01-13T16:49:52.760Z,40.97
2023-01-13T16:52:21.299Z,33.70
2023-01-13T16:54:51.409Z,35.47
2023-01-13T16:57:20.030Z,35.17
2023-01-13T16:59:48.773Z,37.37
2023-01-13T17:02:20.734Z,31.60
2023-01-13T17:04:49.625Z,29.67
2023-01-13T17:07:19.115Z,36.87
2023-01-13T17:09:47.710Z,39.83
2023-01-13T17:12:18.134Z,36.20
2023-01-13T17:14:46.799Z,31.47
2023-01-13T17:17:23.138Z,35.37
2023-01-13T17:19:53.214Z,37.00
2023-01-13T17:22:22.916Z,36.20
2023-01-13T17:24:51.631Z,41.13
2023-01-13T17:27:23.272Z,37.83
2023-01-13T17:29:52.276Z,31.73
2023-01-13T17:32:23.147Z,34.47
2023-01-13T17:34:53.973Z,30.67
2023-01-13T17:37:24.192Z,28.70
2023-01-13T17:39:53.771Z,29.00
2023-01-13T17:42:25.234Z,30.67
2023-01-13T17:44:53.859Z,31.93
2023-01-13T17:47:22.674Z,28.67
2023-01-13T17:49:51.415Z,28.83
2023-01-13T17:52:20.389Z,32.57
2023-01-13T17:54:48.877Z,30.73
2023-01-13T17:57:17.485Z,35.27
2023-01-13T17:59:48.188Z,37.40
2023-01-13T18:02:16.944Z,40.33
2023-01-13T18:04:45.851Z,31.43
2023-01-13T18:07:14.485Z,33.10
2023-01-13T18:09:42.982Z,34.63
2023-01-13T18:12:11.832Z,30.17
2023-01-13T18:14:40.721Z,25.23
2023-01-13T18:17:11.291Z,25.27
2023-01-13T18:19:57.540Z,25.53
2023-01-13T18:22:43.777Z,26.33
2023-01-13T18:25:31.089Z,31.73
2023-01-13T18:28:01.325Z,30.10
2023-01-13T18:30:29.946Z,31.70
2023-01-13T18:32:59.921Z,34.23
2023-01-13T18:35:29.724Z,32.50
2023-01-13T18:37:58.250Z,19.83
2023-01-13T18:40:26.785Z,21.67
2023-01-13T18:42:59.321Z,20.90
2023-01-13T18:45:30.388Z,17.80
2023-01-13T18:48:02.368Z,25.63
2023-01-13T18:50:31.706Z,17.23
2023-01-13T18:53:00.427Z,21.20
2023-01-13T18:55:29.782Z,24.37
2023-01-13T18:57:59.112Z,25.07
2023-01-13T19:00:28.124Z,26.17
2023-01-13T19:05:36.047Z,24.63
2023-01-13T19:08:05.302Z,19.20
2023-01-13T19:10:34.123Z,20.10
2023-01-13T19:13:02.916Z,22.87
2023-01-13T19:15:31.986Z,24.13
2023-01-13T19:18:02.373Z,26.90
2023-01-13T19:20:30.986Z,21.33
2023-01-13T19:22:59.472Z,19.27
2023-01-13T19:25:28.059Z,16.73
2023-01-13T19:27:56.742Z,14.43
2023-01-13T19:30:25.269Z,14.93
2023-01-13T19:32:54.017Z,18.00
2023-01-13T19:35:24.199Z,15.77
2023-01-13T19:37:53.088Z,21.13
2023-01-13T19:40:21.712Z,20.57
2023-01-13T19:43:07.337Z,18.60
2023-01-13T19:45:36.533Z,17.70
2023-01-13T19:48:09.774Z,13.57
2023-01-13T19:50:41.527Z,16.00
2023-01-13T19:53:17.557Z,19.97
2023-01-13T19:55:48.573Z,20.07
2023-01-13T19:58:18.914Z,18.07
2023-01-13T20:00:48.708Z,16.67
2023-01-13T20:03:18.309Z,15.80
2023-01-13T20:05:48.472Z,17.57
2023-01-13T20:08:17.021Z,20.07
2023-01-13T20:10:46.268Z,14.03
2023-01-13T20:13:14.865Z,13.90
2023-01-13T20:15:44.568Z,16.83
2023-01-13T20:18:13.210Z,20.57
2023-01-13T20:20:41.775Z,17.00
2023-01-13T20:23:12.511Z,17.57
2023-01-13T20:25:43.755Z,20.57
2023-01-13T20:28:12.331Z,19.33
2023-01-13T20:30:41.824Z,18.63
2023-01-13T20:33:10.716Z,26.43
2023-01-13T20:35:39.336Z,23.10
2023-01-13T20:38:08.169Z,26.73
2023-01-13T20:40:38.173Z,20.43
2023-01-13T20:43:05.698Z,22.37
2023-01-13T20:45:34.368Z,18.33
2023-01-13T20:48:02.992Z,28.23
2023-01-13T20:50:32.013Z,28.23
2023-01-13T20:53:00.533Z,24.13
2023-01-13T20:55:29.267Z,24.37
2023-01-13T20:57:59.199Z,21.00
2023-01-13T21:00:29.242Z,26.23
2023-01-13T21:02:57.982Z,25.13
2023-01-13T21:05:26.673Z,32.47
2023-01-13T21:07:55.292Z,31.10
2023-01-13T21:10:23.787Z,27.67
2023-01-13T21:13:10.009Z,24.43
2023-01-13T21:15:40.068Z,29.17
2023-01-13T21:18:26.341Z,27.33
2023-01-13T21:21:11.743Z,23.53
2023-01-13T21:23:41.374Z,25.13
2023-01-13T21:26:10.830Z,34.03
2023-01-13T21:28:39.536Z,21.97
2023-01-13T21:31:10.859Z,23.10
2023-01-13T21:33:41.284Z,24.03
2023-01-13T21:36:14.203Z,23.70
2023-01-13T21:38:43.406Z,22.17
2023-01-13T21:41:14.500Z,26.73
2023-01-13T21:44:00.690Z,27.47
2023-01-13T21:46:49.271Z,27.47
2023-01-13T21:49:18.139Z,21.47
2023-01-13T21:51:46.945Z,20.20
2023-01-13T21:54:15.710Z,21.93
2023-01-13T21:56:44.282Z,23.33
2023-01-13T21:59:12.891Z,25.13
2023-01-13T22:02:21.838Z,24.70
2023-01-13T22:04:32.684Z,20.97
2023-01-13T22:07:04.738Z,21.23
2023-01-13T22:09:33.339Z,20.87
2023-01-13T22:12:02.643Z,19.87
2023-01-13T22:14:31.213Z,20.43
2023-01-13T22:17:03.191Z,19.27
2023-01-13T22:19:31.862Z,20.97
2023-01-13T22:22:00.398Z,15.37
2023-01-13T22:24:30.368Z,14.30
2023-01-13T22:26:59.271Z,13.43
2023-01-13T22:29:27.921Z,12.53
2023-01-13T22:31:56.634Z,13.10
2023-01-13T22:34:26.541Z,14.33
2023-01-13T22:36:55.074Z,14.10
2023-01-13T22:39:23.597Z,16.67
2023-01-13T22:41:52.096Z,14.33
2023-01-13T22:44:21.213Z,10.63
2023-01-13T22:46:49.812Z,10.20
2023-01-13T22:49:18.994Z,12.63
2023-01-13T22:51:49.214Z,10.57
2023-01-13T22:54:19.278Z,12.33
2023-01-13T22:56:47.889Z,13.63
2023-01-13T22:59:16.790Z,11.27
2023-01-13T23:01:45.383Z,9.60
2023-01-13T23:04:14.393Z,10.13
2023-01-13T23:06:43.019Z,11.77
2023-01-13T23:09:13.033Z,10.57
2023-01-13T23:11:42.183Z,7.90
2023-01-13T23:14:12.955Z,7.97
2023-01-13T23:16:42.485Z,10.53
2023-01-13T23:19:12.990Z,8.17
2023-01-13T23:21:41.879Z,8.97
2023-01-13T23:24:12.843Z,9.37
2023-01-13T23:26:42.026Z,10.53
2023-01-13T23:29:13.320Z,8.67
2023-01-13T23:31:43.300Z,7.67
2023-01-13T23:34:11.897Z,7.37
2023-01-13T23:36:41.955Z,7.13
2023-01-13T23:39:10.595Z,8.63
2023-01-13T23:41:40.573Z,9.60
2023-01-13T23:44:09.134Z,11.27
2023-01-13T23:46:37.727Z,7.93
2023-01-13T23:49:06.456Z,9.27
2023-01-13T23:51:35.088Z,9.53
2023-01-13T23:54:03.648Z,10.67
2023-01-13T23:56:34.123Z,7.67
2023-01-13T23:59:05.803Z,8.00
